sensor_id;sensor_type;location;lat;lon;timestamp;temperature;humidity
51853;DHT22;37894;53.172;6.598;2023-09-12T00:02:05;19.20;99.90
51853;DHT22;37894;53.172;6.598;2023-09-12T00:04:31;19.10;99.90
51853;DHT22;37894;53.172;6.598;2023-09-12T00:06:57;19.10;99.90
51853;DHT22;37894;53.172;6.598;2023-09-12T00:09:22;19.10;99.90
51853;DHT22;37894;53.172;6.598;2023-09-12T00:11:48;19.10;99.90
51853;DHT22;37894;53.172;6.598;2023-09-12T00:14:18;19.10;99.90
51853;DHT22;37894;53.172;6.598;2023-09-12T00:16:44;19.00;99.90
51853;DHT22;37894;53.172;6.598;2023-09-12T00:19:09;19.00;99.90
51853;DHT22;37894;53.172;6.598;2023-09-12T00:21:35;19.00;99.90
51853;DHT22;37894;53.172;6.598;2023-09-12T00:24:01;19.00;99.90
51853;DHT22;37894;53.172;6.598;2023-09-12T00:26:26;19.00;99.90
51853;DHT22;37894;53.172;6.598;2023-09-12T00:28:52;19.00;99.90
51853;DHT22;37894;53.172;6.598;2023-09-12T00:31:18;19.00;99.90
51853;DHT22;37894;53.172;6.598;2023-09-12T00:33:44;19.00;99.90
51853;DHT22;37894;53.172;6.598;2023-09-12T00:36:09;18.90;99.90
51853;DHT22;37894;53.172;6.598;2023-09-12T00:38:35;19.00;99.90
51853;DHT22;37894;53.172;6.598;2023-09-12T00:41:00;19.00;99.90
51853;DHT22;37894;53.172;6.598;2023-09-12T00:43:26;18.90;99.90
51853;DHT22;37894;53.172;6.598;2023-09-12T00:45:52;18.90;99.90
51853;DHT22;37894;53.172;6.598;2023-09-12T00:48:18;18.90;99.90
51853;DHT22;37894;53.172;6.598;2023-09-12T00:50:46;18.90;99.90
51853;DHT22;37894;53.172;6.598;2023-09-12T00:53:13;18.90;99.90
51853;DHT22;37894;53.172;6.598;2023-09-12T00:55:44;18.80;99.90
51853;DHT22;37894;53.172;6.598;2023-09-12T00:58:11;18.80;99.90
51853;DHT22;37894;53.172;6.598;2023-09-12T01:00:37;18.80;99.90
51853;DHT22;37894;53.172;6.598;2023-09-12T01:03:03;18.80;99.90
51853;DHT22;37894;53.172;6.598;2023-09-12T01:05:29;18.80;99.90
51853;DHT22;37894;53.172;6.598;2023-09-12T01:07:55;18.70;99.90
51853;DHT22;37894;53.172;6.598;2023-09-12T01:10:22;18.80;99.90
51853;DHT22;37894;53.172;6.598;2023-09-12T01:12:47;18.70;99.90
51853;DHT22;37894;53.172;6.598;2023-09-12T01:15:13;18.70;99.90
51853;DHT22;37894;53.172;6.598;2023-09-12T01:17:43;18.70;99.90
51853;DHT22;37894;53.172;6.598;2023-09-12T01:20:15;18.70;99.90
51853;DHT22;37894;53.172;6.598;2023-09-12T01:22:49;18.70;99.90
51853;DHT22;37894;53.172;6.598;2023-09-12T01:28:23;18.70;99.90
51853;DHT22;37894;53.172;6.598;2023-09-12T01:30:52;18.70;99.90
51853;DHT22;37894;53.172;6.598;2023-09-12T01:33:18;18.70;99.90
51853;DHT22;37894;53.172;6.598;2023-09-12T01:35:44;18.70;99.90
51853;DHT22;37894;53.172;6.598;2023-09-12T01:38:12;18.70;99.90
51853;DHT22;37894;53.172;6.598;2023-09-12T01:40:47;18.70;99.90
51853;DHT22;37894;53.172;6.598;2023-09-12T01:43:17;18.60;99.90
51853;DHT22;37894;53.172;6.598;2023-09-12T01:45:44;18.60;99.90
51853;DHT22;37894;53.172;6.598;2023-09-12T01:48:11;18.60;99.90
51853;DHT22;37894;53.172;6.598;2023-09-12T01:50:37;18.60;99.90
51853;DHT22;37894;53.172;6.598;2023-09-12T01:53:04;18.60;99.90
51853;DHT22;37894;53.172;6.598;2023-09-12T01:55:30;18.50;99.90
51853;DHT22;37894;53.172;6.598;2023-09-12T01:57:57;18.50;99.90
51853;DHT22;37894;53.172;6.598;2023-09-12T02:00:23;18.50;99.90
51853;DHT22;37894;53.172;6.598;2023-09-12T02:02:51;18.50;99.90
51853;DHT22;37894;53.172;6.598;2023-09-12T02:05:22;18.50;99.90
51853;DHT22;37894;53.172;6.598;2023-09-12T02:07:48;18.40;99.90
51853;DHT22;37894;53.172;6.598;2023-09-12T02:10:14;18.40;99.90
51853;DHT22;37894;53.172;6.598;2023-09-12T02:12:40;18.40;99.90
51853;DHT22;37894;53.172;6.598;2023-09-12T02:15:07;18.20;99.90
51853;DHT22;37894;53.172;6.598;2023-09-12T02:17:32;18.30;99.90
51853;DHT22;37894;53.172;6.598;2023-09-12T02:19:58;18.30;99.90
51853;DHT22;37894;53.172;6.598;2023-09-12T02:22:24;18.30;99.90
51853;DHT22;37894;53.172;6.598;2023-09-12T02:24:50;18.20;99.90
51853;DHT22;37894;53.172;6.598;2023-09-12T02:27:16;18.20;99.90
51853;DHT22;37894;53.172;6.598;2023-09-12T02:29:42;18.20;99.90
51853;DHT22;37894;53.172;6.598;2023-09-12T02:32:09;18.10;99.90
51853;DHT22;37894;53.172;6.598;2023-09-12T02:34:34;17.20;99.90
51853;DHT22;37894;53.172;6.598;2023-09-12T02:37:00;18.10;99.90
51853;DHT22;37894;53.172;6.598;2023-09-12T02:39:26;18.10;99.90
51853;DHT22;37894;53.172;6.598;2023-09-12T02:41:52;18.00;99.90
51853;DHT22;37894;53.172;6.598;2023-09-12T02:44:17;18.00;99.90
51853;DHT22;37894;53.172;6.598;2023-09-12T02:46:43;17.90;99.90
51853;DHT22;37894;53.172;6.598;2023-09-12T02:49:09;18.00;99.90
51853;DHT22;37894;53.172;6.598;2023-09-12T02:51:38;17.90;99.90
51853;DHT22;37894;53.172;6.598;2023-09-12T02:54:04;17.90;99.90
51853;DHT22;37894;53.172;6.598;2023-09-12T02:56:30;17.90;99.90
51853;DHT22;37894;53.172;6.598;2023-09-12T02:58:56;17.90;99.90
51853;DHT22;37894;53.172;6.598;2023-09-12T03:01:22;17.90;99.90
51853;DHT22;37894;53.172;6.598;2023-09-12T03:03:51;19.20;99.90
51853;DHT22;37894;53.172;6.598;2023-09-12T03:06:17;18.00;99.90
51853;DHT22;37894;53.172;6.598;2023-09-12T03:08:45;17.90;99.90
51853;DHT22;37894;53.172;6.598;2023-09-12T03:11:11;18.00;99.90
51853;DHT22;37894;53.172;6.598;2023-09-12T03:13:38;18.00;99.90
51853;DHT22;37894;53.172;6.598;2023-09-12T03:16:04;18.00;99.90
51853;DHT22;37894;53.172;6.598;2023-09-12T03:18:30;18.00;99.90
51853;DHT22;37894;53.172;6.598;2023-09-12T03:20:56;18.10;99.90
51853;DHT22;37894;53.172;6.598;2023-09-12T03:23:22;18.10;99.90
51853;DHT22;37894;53.172;6.598;2023-09-12T03:25:47;18.10;99.90
51853;DHT22;37894;53.172;6.598;2023-09-12T03:28:13;18.10;99.90
51853;DHT22;37894;53.172;6.598;2023-09-12T03:30:39;18.10;99.90
51853;DHT22;37894;53.172;6.598;2023-09-12T03:33:05;18.10;99.90
51853;DHT22;37894;53.172;6.598;2023-09-12T03:35:32;18.20;99.90
51853;DHT22;37894;53.172;6.598;2023-09-12T03:37:58;19.30;99.90
51853;DHT22;37894;53.172;6.598;2023-09-12T03:40:24;18.20;99.90
51853;DHT22;37894;53.172;6.598;2023-09-12T03:42:50;18.10;99.90
51853;DHT22;37894;53.172;6.598;2023-09-12T03:45:15;18.20;99.90
51853;DHT22;37894;53.172;6.598;2023-09-12T03:47:41;18.20;99.90
51853;DHT22;37894;53.172;6.598;2023-09-12T03:50:08;18.20;99.90
51853;DHT22;37894;53.172;6.598;2023-09-12T03:52:33;18.20;99.90
51853;DHT22;37894;53.172;6.598;2023-09-12T03:54:59;18.00;99.90
51853;DHT22;37894;53.172;6.598;2023-09-12T03:57:26;18.20;99.90
51853;DHT22;37894;53.172;6.598;2023-09-12T03:59:52;18.20;99.90
51853;DHT22;37894;53.172;6.598;2023-09-12T04:02:18;18.10;99.90
51853;DHT22;37894;53.172;6.598;2023-09-12T04:04:44;18.10;99.90
51853;DHT22;37894;53.172;6.598;2023-09-12T04:07:10;18.10;99.90
51853;DHT22;37894;53.172;6.598;2023-09-12T04:09:35;18.10;99.90
51853;DHT22;37894;53.172;6.598;2023-09-12T04:12:01;18.10;99.90
51853;DHT22;37894;53.172;6.598;2023-09-12T04:14:27;18.10;99.90
51853;DHT22;37894;53.172;6.598;2023-09-12T04:16:53;18.10;99.90
51853;DHT22;37894;53.172;6.598;2023-09-12T04:19:19;18.10;99.90
51853;DHT22;37894;53.172;6.598;2023-09-12T04:21:44;18.00;99.90
51853;DHT22;37894;53.172;6.598;2023-09-12T04:24:10;18.00;99.90
51853;DHT22;37894;53.172;6.598;2023-09-12T04:26:36;17.90;99.90
51853;DHT22;37894;53.172;6.598;2023-09-12T04:29:02;17.90;99.90
51853;DHT22;37894;53.172;6.598;2023-09-12T04:31:28;17.90;99.90
51853;DHT22;37894;53.172;6.598;2023-09-12T04:33:54;17.90;99.90
51853;DHT22;37894;53.172;6.598;2023-09-12T04:36:20;17.80;99.90
51853;DHT22;37894;53.172;6.598;2023-09-12T04:38:46;17.80;99.90
51853;DHT22;37894;53.172;6.598;2023-09-12T04:41:13;17.70;99.90
51853;DHT22;37894;53.172;6.598;2023-09-12T04:43:45;17.70;99.90
51853;DHT22;37894;53.172;6.598;2023-09-12T04:46:11;17.70;99.90
51853;DHT22;37894;53.172;6.598;2023-09-12T04:48:38;17.60;99.90
51853;DHT22;37894;53.172;6.598;2023-09-12T04:51:04;17.60;99.90
51853;DHT22;37894;53.172;6.598;2023-09-12T04:53:30;17.60;99.90
51853;DHT22;37894;53.172;6.598;2023-09-12T04:56:02;17.50;99.90
51853;DHT22;37894;53.172;6.598;2023-09-12T04:58:28;17.50;99.90
51853;DHT22;37894;53.172;6.598;2023-09-12T05:00:54;17.50;99.90
51853;DHT22;37894;53.172;6.598;2023-09-12T05:03:21;17.40;99.90
51853;DHT22;37894;53.172;6.598;2023-09-12T05:05:47;17.40;99.90
51853;DHT22;37894;53.172;6.598;2023-09-12T05:08:13;17.40;99.90
51853;DHT22;37894;53.172;6.598;2023-09-12T05:10:39;16.10;99.90
51853;DHT22;37894;53.172;6.598;2023-09-12T05:13:05;17.50;99.90
51853;DHT22;37894;53.172;6.598;2023-09-12T05:15:32;17.40;99.90
51853;DHT22;37894;53.172;6.598;2023-09-12T05:17:58;17.40;99.90
51853;DHT22;37894;53.172;6.598;2023-09-12T05:20:24;17.30;99.90
51853;DHT22;37894;53.172;6.598;2023-09-12T05:22:49;17.30;99.90
51853;DHT22;37894;53.172;6.598;2023-09-12T05:25:15;17.30;99.90
51853;DHT22;37894;53.172;6.598;2023-09-12T05:27:41;17.40;99.90
51853;DHT22;37894;53.172;6.598;2023-09-12T05:30:07;17.40;99.90
51853;DHT22;37894;53.172;6.598;2023-09-12T05:32:33;17.40;99.90
51853;DHT22;37894;53.172;6.598;2023-09-12T05:34:58;17.40;99.90
51853;DHT22;37894;53.172;6.598;2023-09-12T05:37:24;17.50;99.90
51853;DHT22;37894;53.172;6.598;2023-09-12T05:39:50;17.50;99.90
51853;DHT22;37894;53.172;6.598;2023-09-12T05:42:15;17.50;99.90
51853;DHT22;37894;53.172;6.598;2023-09-12T05:44:47;17.50;99.90
51853;DHT22;37894;53.172;6.598;2023-09-12T05:47:13;17.50;99.90
51853;DHT22;37894;53.172;6.598;2023-09-12T05:49:38;17.40;99.90
51853;DHT22;37894;53.172;6.598;2023-09-12T05:52:04;17.50;99.90
51853;DHT22;37894;53.172;6.598;2023-09-12T05:54:31;17.50;99.90
51853;DHT22;37894;53.172;6.598;2023-09-12T05:56:56;17.50;99.90
51853;DHT22;37894;53.172;6.598;2023-09-12T05:59:22;17.50;99.90
51853;DHT22;37894;53.172;6.598;2023-09-12T06:01:48;16.40;99.90
51853;DHT22;37894;53.172;6.598;2023-09-12T06:04:14;17.50;99.90
51853;DHT22;37894;53.172;6.598;2023-09-12T06:06:40;17.50;99.90
51853;DHT22;37894;53.172;6.598;2023-09-12T06:09:06;17.60;99.90
51853;DHT22;37894;53.172;6.598;2023-09-12T06:11:32;17.60;99.90
51853;DHT22;37894;53.172;6.598;2023-09-12T06:13:57;17.60;99.90
51853;DHT22;37894;53.172;6.598;2023-09-12T06:16:23;17.60;99.90
51853;DHT22;37894;53.172;6.598;2023-09-12T06:18:49;17.70;99.90
51853;DHT22;37894;53.172;6.598;2023-09-12T06:21:15;17.70;99.90
51853;DHT22;37894;53.172;6.598;2023-09-12T06:23:41;17.70;99.90
51853;DHT22;37894;53.172;6.598;2023-09-12T06:26:06;17.70;99.90
51853;DHT22;37894;53.172;6.598;2023-09-12T06:28:32;17.70;99.90
51853;DHT22;37894;53.172;6.598;2023-09-12T06:30:58;17.70;99.90
51853;DHT22;37894;53.172;6.598;2023-09-12T06:33:25;17.80;99.90
51853;DHT22;37894;53.172;6.598;2023-09-12T06:35:51;17.70;99.90
51853;DHT22;37894;53.172;6.598;2023-09-12T06:38:19;17.80;99.90
51853;DHT22;37894;53.172;6.598;2023-09-12T06:40:45;17.80;99.90
51853;DHT22;37894;53.172;6.598;2023-09-12T06:43:13;17.80;99.90
51853;DHT22;37894;53.172;6.598;2023-09-12T06:45:40;17.90;99.90
51853;DHT22;37894;53.172;6.598;2023-09-12T06:48:06;17.90;99.90
51853;DHT22;37894;53.172;6.598;2023-09-12T06:50:32;17.90;99.90
51853;DHT22;37894;53.172;6.598;2023-09-12T06:52:58;17.90;99.90
51853;DHT22;37894;53.172;6.598;2023-09-12T06:55:24;18.40;99.90
51853;DHT22;37894;53.172;6.598;2023-09-12T06:57:50;17.90;99.90
51853;DHT22;37894;53.172;6.598;2023-09-12T07:00:16;18.00;99.90
51853;DHT22;37894;53.172;6.598;2023-09-12T07:02:42;17.40;99.90
51853;DHT22;37894;53.172;6.598;2023-09-12T07:05:08;18.00;99.90
51853;DHT22;37894;53.172;6.598;2023-09-12T07:07:34;18.10;99.90
51853;DHT22;37894;53.172;6.598;2023-09-12T07:10:00;18.10;99.90
51853;DHT22;37894;53.172;6.598;2023-09-12T07:12:28;18.20;99.90
51853;DHT22;37894;53.172;6.598;2023-09-12T07:14:54;18.20;99.90
51853;DHT22;37894;53.172;6.598;2023-09-12T07:17:21;18.10;99.90
51853;DHT22;37894;53.172;6.598;2023-09-12T07:19:47;18.20;99.90
51853;DHT22;37894;53.172;6.598;2023-09-12T07:22:13;18.30;99.90
51853;DHT22;37894;53.172;6.598;2023-09-12T07:24:39;18.40;99.90
51853;DHT22;37894;53.172;6.598;2023-09-12T07:27:04;18.40;99.90
51853;DHT22;37894;53.172;6.598;2023-09-12T07:29:30;18.50;99.90
51853;DHT22;37894;53.172;6.598;2023-09-12T07:31:56;18.50;99.90
51853;DHT22;37894;53.172;6.598;2023-09-12T07:34:23;18.50;99.90
51853;DHT22;37894;53.172;6.598;2023-09-12T07:36:49;18.60;99.90
51853;DHT22;37894;53.172;6.598;2023-09-12T07:39:17;18.70;99.90
51853;DHT22;37894;53.172;6.598;2023-09-12T07:41:43;18.80;99.90
51853;DHT22;37894;53.172;6.598;2023-09-12T07:44:08;18.90;99.90
51853;DHT22;37894;53.172;6.598;2023-09-12T07:46:38;18.90;99.90
51853;DHT22;37894;53.172;6.598;2023-09-12T07:49:03;19.00;99.90
51853;DHT22;37894;53.172;6.598;2023-09-12T07:51:29;19.10;99.90
51853;DHT22;37894;53.172;6.598;2023-09-12T07:53:55;19.20;99.90
51853;DHT22;37894;53.172;6.598;2023-09-12T07:56:20;19.20;99.90
51853;DHT22;37894;53.172;6.598;2023-09-12T07:58:46;19.20;99.90
51853;DHT22;37894;53.172;6.598;2023-09-12T08:01:12;19.20;99.90
51853;DHT22;37894;53.172;6.598;2023-09-12T08:03:39;19.20;99.90
51853;DHT22;37894;53.172;6.598;2023-09-12T08:06:05;19.20;99.90
51853;DHT22;37894;53.172;6.598;2023-09-12T08:08:31;19.20;99.90
51853;DHT22;37894;53.172;6.598;2023-09-12T08:10:57;19.20;99.90
51853;DHT22;37894;53.172;6.598;2023-09-12T08:13:25;19.10;99.90
51853;DHT22;37894;53.172;6.598;2023-09-12T08:15:52;19.10;99.90
51853;DHT22;37894;53.172;6.598;2023-09-12T08:18:17;19.10;99.90
51853;DHT22;37894;53.172;6.598;2023-09-12T08:20:43;19.10;99.90
51853;DHT22;37894;53.172;6.598;2023-09-12T08:23:09;19.10;99.90
51853;DHT22;37894;53.172;6.598;2023-09-12T08:25:35;19.10;99.90
51853;DHT22;37894;53.172;6.598;2023-09-12T08:28:01;19.10;99.90
51853;DHT22;37894;53.172;6.598;2023-09-12T08:30:27;19.10;99.90
51853;DHT22;37894;53.172;6.598;2023-09-12T08:32:56;19.10;99.90
51853;DHT22;37894;53.172;6.598;2023-09-12T08:35:21;19.10;99.90
51853;DHT22;37894;53.172;6.598;2023-09-12T08:37:47;19.20;99.90
51853;DHT22;37894;53.172;6.598;2023-09-12T08:40:13;19.30;99.90
51853;DHT22;37894;53.172;6.598;2023-09-12T08:42:43;19.40;99.90
51853;DHT22;37894;53.172;6.598;2023-09-12T08:45:14;19.50;99.90
51853;DHT22;37894;53.172;6.598;2023-09-12T08:47:45;19.60;99.90
51853;DHT22;37894;53.172;6.598;2023-09-12T08:50:14;19.80;99.90
51853;DHT22;37894;53.172;6.598;2023-09-12T08:52:40;19.80;99.90
51853;DHT22;37894;53.172;6.598;2023-09-12T08:55:08;20.00;99.90
51853;DHT22;37894;53.172;6.598;2023-09-12T08:57:36;20.00;99.90
51853;DHT22;37894;53.172;6.598;2023-09-12T09:00:04;20.10;99.90
51853;DHT22;37894;53.172;6.598;2023-09-12T09:02:35;20.10;99.90
51853;DHT22;37894;53.172;6.598;2023-09-12T09:05:05;20.10;99.90
51853;DHT22;37894;53.172;6.598;2023-09-12T09:07:42;20.00;99.90
51853;DHT22;37894;53.172;6.598;2023-09-12T09:10:19;20.00;99.90
51853;DHT22;37894;53.172;6.598;2023-09-12T09:12:46;20.10;99.90
51853;DHT22;37894;53.172;6.598;2023-09-12T09:15:28;20.00;99.90
51853;DHT22;37894;53.172;6.598;2023-09-12T09:17:56;20.00;99.90
51853;DHT22;37894;53.172;6.598;2023-09-12T09:23:02;20.20;99.90
51853;DHT22;37894;53.172;6.598;2023-09-12T09:25:35;20.30;99.90
51853;DHT22;37894;53.172;6.598;2023-09-12T09:28:17;20.30;99.90
51853;DHT22;37894;53.172;6.598;2023-09-12T09:30:44;20.30;99.90
51853;DHT22;37894;53.172;6.598;2023-09-12T09:33:12;20.30;99.90
51853;DHT22;37894;53.172;6.598;2023-09-12T09:35:40;20.30;99.90
51853;DHT22;37894;53.172;6.598;2023-09-12T09:38:07;20.30;99.90
51853;DHT22;37894;53.172;6.598;2023-09-12T09:40:34;20.30;99.90
51853;DHT22;37894;53.172;6.598;2023-09-12T09:43:02;20.20;99.90
51853;DHT22;37894;53.172;6.598;2023-09-12T09:45:31;20.20;99.90
51853;DHT22;37894;53.172;6.598;2023-09-12T09:48:05;20.30;99.90
51853;DHT22;37894;53.172;6.598;2023-09-12T09:50:37;20.40;99.90
51853;DHT22;37894;53.172;6.598;2023-09-12T09:53:03;20.50;99.90
51853;DHT22;37894;53.172;6.598;2023-09-12T09:55:31;20.60;99.90
51853;DHT22;37894;53.172;6.598;2023-09-12T09:57:58;20.70;99.90
51853;DHT22;37894;53.172;6.598;2023-09-12T10:00:25;20.80;99.90
51853;DHT22;37894;53.172;6.598;2023-09-12T10:02:51;20.80;99.90
51853;DHT22;37894;53.172;6.598;2023-09-12T10:05:18;20.90;99.90
51853;DHT22;37894;53.172;6.598;2023-09-12T10:07:47;21.00;99.90
51853;DHT22;37894;53.172;6.598;2023-09-12T10:10:16;21.10;99.90
51853;DHT22;37894;53.172;6.598;2023-09-12T10:12:51;21.30;99.90
51853;DHT22;37894;53.172;6.598;2023-09-12T10:15:21;21.40;99.90
51853;DHT22;37894;53.172;6.598;2023-09-12T10:17:56;21.50;99.90
51853;DHT22;37894;53.172;6.598;2023-09-12T10:20:32;21.60;99.90
51853;DHT22;37894;53.172;6.598;2023-09-12T10:23:12;21.60;99.90
51853;DHT22;37894;53.172;6.598;2023-09-12T10:25:40;21.70;99.90
51853;DHT22;37894;53.172;6.598;2023-09-12T10:28:09;21.90;99.90
51853;DHT22;37894;53.172;6.598;2023-09-12T10:30:37;22.00;99.90
51853;DHT22;37894;53.172;6.598;2023-09-12T10:33:03;21.90;99.90
51853;DHT22;37894;53.172;6.598;2023-09-12T10:35:31;21.80;99.90
51853;DHT22;37894;53.172;6.598;2023-09-12T10:38:00;21.80;99.90
51853;DHT22;37894;53.172;6.598;2023-09-12T10:40:28;21.70;99.90
51853;DHT22;37894;53.172;6.598;2023-09-12T10:42:55;21.70;99.90
51853;DHT22;37894;53.172;6.598;2023-09-12T10:45:22;21.70;99.90
51853;DHT22;37894;53.172;6.598;2023-09-12T10:47:48;21.90;99.90
51853;DHT22;37894;53.172;6.598;2023-09-12T10:50:14;22.00;99.90
51853;DHT22;37894;53.172;6.598;2023-09-12T10:52:40;22.10;99.90
51853;DHT22;37894;53.172;6.598;2023-09-12T10:55:07;22.20;99.90
51853;DHT22;37894;53.172;6.598;2023-09-12T10:57:33;22.20;99.90
51853;DHT22;37894;53.172;6.598;2023-09-12T11:02:34;22.30;99.90
51853;DHT22;37894;53.172;6.598;2023-09-12T11:05:34;22.40;99.90
51853;DHT22;37894;53.172;6.598;2023-09-12T11:07:57;22.40;99.90
51853;DHT22;37894;53.172;6.598;2023-09-12T11:10:23;22.60;99.90
51853;DHT22;37894;53.172;6.598;2023-09-12T11:12:54;22.60;99.90
51853;DHT22;37894;53.172;6.598;2023-09-12T11:15:22;22.80;99.90
51853;DHT22;37894;53.172;6.598;2023-09-12T11:17:49;22.90;99.90
51853;DHT22;37894;53.172;6.598;2023-09-12T11:20:24;23.10;99.90
51853;DHT22;37894;53.172;6.598;2023-09-12T11:22:50;23.20;99.90
51853;DHT22;37894;53.172;6.598;2023-09-12T11:25:22;23.20;99.90
51853;DHT22;37894;53.172;6.598;2023-09-12T11:30:18;23.20;99.90
51853;DHT22;37894;53.172;6.598;2023-09-12T11:32:46;23.20;99.90
51853;DHT22;37894;53.172;6.598;2023-09-12T11:35:14;23.10;99.90
51853;DHT22;37894;53.172;6.598;2023-09-12T11:37:51;23.10;99.90
51853;DHT22;37894;53.172;6.598;2023-09-12T11:40:26;23.40;99.90
51853;DHT22;37894;53.172;6.598;2023-09-12T11:43:06;23.60;99.90
51853;DHT22;37894;53.172;6.598;2023-09-12T11:45:33;23.60;99.90
51853;DHT22;37894;53.172;6.598;2023-09-12T11:47:59;23.50;99.90
51853;DHT22;37894;53.172;6.598;2023-09-12T11:53:08;23.50;99.90
51853;DHT22;37894;53.172;6.598;2023-09-12T11:55:45;23.50;99.90
51853;DHT22;37894;53.172;6.598;2023-09-12T11:58:13;23.40;99.90
51853;DHT22;37894;53.172;6.598;2023-09-12T12:00:53;23.40;99.90
51853;DHT22;37894;53.172;6.598;2023-09-12T12:03:20;23.40;99.90
51853;DHT22;37894;53.172;6.598;2023-09-12T12:05:47;23.50;99.90
51853;DHT22;37894;53.172;6.598;2023-09-12T12:08:14;23.60;99.90
51853;DHT22;37894;53.172;6.598;2023-09-12T12:10:40;23.80;99.90
51853;DHT22;37894;53.172;6.598;2023-09-12T12:13:26;24.00;99.90
51853;DHT22;37894;53.172;6.598;2023-09-12T12:15:55;24.30;99.90
51853;DHT22;37894;53.172;6.598;2023-09-12T12:18:21;24.60;99.90
51853;DHT22;37894;53.172;6.598;2023-09-12T12:20:47;24.80;99.90
51853;DHT22;37894;53.172;6.598;2023-09-12T12:23:13;24.90;99.90
51853;DHT22;37894;53.172;6.598;2023-09-12T12:25:39;25.00;99.90
51853;DHT22;37894;53.172;6.598;2023-09-12T12:28:05;25.20;99.90
51853;DHT22;37894;53.172;6.598;2023-09-12T12:30:35;25.40;99.90
51853;DHT22;37894;53.172;6.598;2023-09-12T12:33:06;25.30;99.90
51853;DHT22;37894;53.172;6.598;2023-09-12T12:35:32;25.10;99.90
51853;DHT22;37894;53.172;6.598;2023-09-12T12:37:58;25.10;99.90
51853;DHT22;37894;53.172;6.598;2023-09-12T12:40:24;25.10;99.90
51853;DHT22;37894;53.172;6.598;2023-09-12T12:42:50;25.20;99.90
51853;DHT22;37894;53.172;6.598;2023-09-12T12:45:18;25.20;99.90
51853;DHT22;37894;53.172;6.598;2023-09-12T12:47:44;25.20;99.90
51853;DHT22;37894;53.172;6.598;2023-09-12T12:50:11;25.20;99.90
51853;DHT22;37894;53.172;6.598;2023-09-12T12:52:38;25.20;99.90
51853;DHT22;37894;53.172;6.598;2023-09-12T12:55:10;25.30;99.90
51853;DHT22;37894;53.172;6.598;2023-09-12T12:57:40;25.30;99.90
51853;DHT22;37894;53.172;6.598;2023-09-12T13:00:08;25.30;99.90
51853;DHT22;37894;53.172;6.598;2023-09-12T13:02:40;25.20;99.90
51853;DHT22;37894;53.172;6.598;2023-09-12T13:05:28;25.40;99.90
51853;DHT22;37894;53.172;6.598;2023-09-12T13:07:53;26.00;99.90
51853;DHT22;37894;53.172;6.598;2023-09-12T13:10:20;26.60;99.90
51853;DHT22;37894;53.172;6.598;2023-09-12T13:12:47;27.20;99.90
51853;DHT22;37894;53.172;6.598;2023-09-12T13:15:13;27.60;99.90
51853;DHT22;37894;53.172;6.598;2023-09-12T13:17:40;27.80;99.90
51853;DHT22;37894;53.172;6.598;2023-09-12T13:20:06;28.20;99.90
51853;DHT22;37894;53.172;6.598;2023-09-12T13:22:34;28.30;99.90
51853;DHT22;37894;53.172;6.598;2023-09-12T13:25:00;27.90;99.90
51853;DHT22;37894;53.172;6.598;2023-09-12T13:27:26;27.60;99.90
51853;DHT22;37894;53.172;6.598;2023-09-12T13:29:51;27.20;99.90
51853;DHT22;37894;53.172;6.598;2023-09-12T13:32:17;26.80;99.90
51853;DHT22;37894;53.172;6.598;2023-09-12T13:34:47;26.40;99.90
51853;DHT22;37894;53.172;6.598;2023-09-12T13:37:13;26.20;99.90
51853;DHT22;37894;53.172;6.598;2023-09-12T13:39:42;26.10;99.90
51853;DHT22;37894;53.172;6.598;2023-09-12T13:42:14;26.10;99.90
51853;DHT22;37894;53.172;6.598;2023-09-12T13:44:44;25.90;99.90
51853;DHT22;37894;53.172;6.598;2023-09-12T13:47:10;25.80;99.90
51853;DHT22;37894;53.172;6.598;2023-09-12T13:49:36;25.90;99.90
51853;DHT22;37894;53.172;6.598;2023-09-12T13:52:02;26.10;99.90
51853;DHT22;37894;53.172;6.598;2023-09-12T13:54:27;26.30;99.90
51853;DHT22;37894;53.172;6.598;2023-09-12T13:56:53;26.60;99.90
51853;DHT22;37894;53.172;6.598;2023-09-12T13:59:19;26.60;99.90
51853;DHT22;37894;53.172;6.598;2023-09-12T14:01:46;26.40;99.90
51853;DHT22;37894;53.172;6.598;2023-09-12T14:04:12;26.30;99.90
51853;DHT22;37894;53.172;6.598;2023-09-12T14:06:38;26.20;99.90
51853;DHT22;37894;53.172;6.598;2023-09-12T14:09:05;26.20;99.90
51853;DHT22;37894;53.172;6.598;2023-09-12T14:11:31;26.00;99.90
51853;DHT22;37894;53.172;6.598;2023-09-12T14:13:56;25.90;99.90
51853;DHT22;37894;53.172;6.598;2023-09-12T14:16:22;25.90;99.90
51853;DHT22;37894;53.172;6.598;2023-09-12T14:18:48;25.90;99.90
51853;DHT22;37894;53.172;6.598;2023-09-12T14:21:13;25.90;99.90
51853;DHT22;37894;53.172;6.598;2023-09-12T14:23:39;25.90;99.90
51853;DHT22;37894;53.172;6.598;2023-09-12T14:26:05;25.90;99.90
51853;DHT22;37894;53.172;6.598;2023-09-12T14:28:30;25.80;99.90
51853;DHT22;37894;53.172;6.598;2023-09-12T14:30:58;25.60;99.90
51853;DHT22;37894;53.172;6.598;2023-09-12T14:33:23;25.50;99.90
51853;DHT22;37894;53.172;6.598;2023-09-12T14:35:49;25.40;99.90
51853;DHT22;37894;53.172;6.598;2023-09-12T14:38:15;25.30;99.90
51853;DHT22;37894;53.172;6.598;2023-09-12T14:40:40;25.20;99.90
51853;DHT22;37894;53.172;6.598;2023-09-12T14:43:06;25.20;99.90
51853;DHT22;37894;53.172;6.598;2023-09-12T14:45:33;25.20;99.90
51853;DHT22;37894;53.172;6.598;2023-09-12T14:47:59;25.10;99.90
51853;DHT22;37894;53.172;6.598;2023-09-12T14:50:24;25.10;99.90
51853;DHT22;37894;53.172;6.598;2023-09-12T14:52:55;25.10;99.90
51853;DHT22;37894;53.172;6.598;2023-09-12T14:55:20;25.10;99.90
51853;DHT22;37894;53.172;6.598;2023-09-12T14:57:46;25.00;99.90
51853;DHT22;37894;53.172;6.598;2023-09-12T15:00:12;25.00;99.90
51853;DHT22;37894;53.172;6.598;2023-09-12T15:02:38;24.90;99.90
51853;DHT22;37894;53.172;6.598;2023-09-12T15:05:04;24.80;99.90
51853;DHT22;37894;53.172;6.598;2023-09-12T15:07:30;24.70;99.90
51853;DHT22;37894;53.172;6.598;2023-09-12T15:09:56;24.60;99.90
51853;DHT22;37894;53.172;6.598;2023-09-12T15:12:22;24.60;99.90
51853;DHT22;37894;53.172;6.598;2023-09-12T15:14:49;24.50;99.90
51853;DHT22;37894;53.172;6.598;2023-09-12T15:17:15;24.50;99.90
51853;DHT22;37894;53.172;6.598;2023-09-12T15:19:40;24.50;99.90
51853;DHT22;37894;53.172;6.598;2023-09-12T15:22:06;24.40;99.90
51853;DHT22;37894;53.172;6.598;2023-09-12T15:24:32;24.40;99.90
51853;DHT22;37894;53.172;6.598;2023-09-12T15:26:58;24.30;99.90
51853;DHT22;37894;53.172;6.598;2023-09-12T15:29:23;24.20;99.90
51853;DHT22;37894;53.172;6.598;2023-09-12T15:31:49;24.10;99.90
51853;DHT22;37894;53.172;6.598;2023-09-12T15:34:15;24.10;99.90
51853;DHT22;37894;53.172;6.598;2023-09-12T15:36:46;24.00;99.90
51853;DHT22;37894;53.172;6.598;2023-09-12T15:39:12;23.90;99.90
51853;DHT22;37894;53.172;6.598;2023-09-12T15:41:38;23.90;99.90
51853;DHT22;37894;53.172;6.598;2023-09-12T15:44:04;23.80;99.90